EGVO

RAF Odiham Airport

Odiham, United Kingdom
METAR EGVO 161350Z 27012KT 9999 SCT037 BKN060 06/01 Q1018 BLU
Observed Flight Rules
Dec-16 @ 13:50 UTC (52 minutes ago) Visual Flight Rules
Wind Visibility Clouds
270° at 12 knots 10,000+ meters
  • Scattered at 3,700' AGL
  • Broken at 6,000' AGL
Temperatures Readings
Current 6°C / 43°F
Dewpoint 1°C / 34°F
Humidity 71%
Altimeter 30.06" Hg
Pressure 1018 hPa
Elevation 123
METAR EGVO 161350Z 27012KT 9999 SCT037 BKN060 06/01 Q1018 BLU
Observed Flight Rules
Dec-16 @ 13:50 UTC
(52 minutes ago)
VFR
Wind Visibility
270° at 12 knots 10,000+ meters
Clouds
  • Scattered at 3,700' AGL
  • Broken at 6,000' AGL
Temperature Dewpoint
6°C / 43°F 1°C / 34°F
Humidity Altimeter Pressure
71% 30.06" Hg 1018 hPa